• Join FlightAware (Why Join?)
  • Login
  • US Flag 
04:28AM EDT


 

Airport Tracker/Info


-or-


 

Live Flight TrackerFlight Track Log ✈ CSN6701 ✈ 18-Mar-2014 ✈ ZGSZ / SZX - ZSZS / HSN

Flight Track Log - Related Links

Times and Time Zones

All times are in EDT time to prevent confusion due to time zone crossing. See the CSN6701 flight status page for this flight to view local times or setup timezone preferences in your user account.

Time Position Orientation Groundspeed Altitude Reporting Facility
EDT Latitude Longitude Course Direction KTS MPH feet Rate Location/Type
10:12PM 22.7204 113.8989 45° Northeast  Level Estimated
10:13PM 22.8012 113.9855 45° Northeast  Level Estimated
10:14PM 22.8820 114.0722 45° Northeast  Level Estimated
10:15PM 22.9628 114.1590 45° Northeast  Level Estimated
10:16PM 23.0435 114.2459 45° Northeast  Level Estimated
10:17PM 23.1242 114.3329 45° Northeast  Level Estimated
10:18PM 23.2048 114.4200 45° Northeast  Level Estimated
10:19PM 23.2845 114.5063 45° Northeast  Level Estimated
10:20PM 23.3642 114.5927 45° Northeast  Level Estimated
10:21PM 23.4438 114.6792 45° Northeast  Level Estimated
10:22PM 23.5234 114.7658 45° Northeast  Level Estimated
10:23PM 23.6029 114.8525 45° Northeast  Level Estimated
10:24PM 23.6824 114.9394 45° Northeast  Level Estimated
10:25PM 23.7618 115.0263 45° Northeast  Level Estimated
10:26PM 23.8412 115.1133 45° Northeast  Level Estimated
10:27PM 23.9205 115.2004 45° Northeast  Level Estimated
10:28PM 23.9998 115.2877 45° Northeast  Level Estimated
10:29PM 24.0790 115.3750 45° Northeast  Level Estimated
10:30PM 24.1582 115.4625 45° Northeast  Level Estimated
10:31PM 24.2373 115.5500 45° Northeast  Level Estimated
10:32PM 24.3164 115.6377 45° Northeast  Level Estimated
10:33PM 24.3954 115.7255 45° Northeast  Level Estimated
10:34PM 24.4744 115.8134 45° Northeast  Level Estimated
10:35PM 24.5533 115.9014 45° Northeast  Level Estimated
10:36PM 24.6322 115.9895 45° Northeast  Level Estimated
10:37PM 24.7110 116.0777 45° Northeast  Level Estimated
10:38PM 24.7898 116.1661 46° Northeast  Level Estimated
10:39PM 24.8685 116.2545 46° Northeast  Level Estimated
10:40PM 24.9472 116.3431 46° Northeast  Level Estimated
10:41PM 25.0258 116.4317 46° Northeast  Level Estimated
10:42PM 25.1044 116.5205 46° Northeast  Level Estimated
10:43PM 25.1829 116.6094 46° Northeast  Level Estimated
10:44PM 25.2614 116.6984 46° Northeast  Level Estimated
10:45PM 25.3398 116.7876 46° Northeast  Level Estimated
10:46PM 25.4181 116.8768 46° Northeast  Level Estimated
10:47PM 25.4964 116.9662 46° Northeast  Level Estimated
10:48PM 25.5747 117.0557 46° Northeast  Level Estimated
10:49PM 25.6528 117.1453 46° Northeast  Level Estimated
10:50PM 25.7310 117.2350 46° Northeast  Level Estimated
10:51PM 25.8091 117.3248 46° Northeast  Level Estimated
10:52PM 25.8871 117.4148 46° Northeast  Level Estimated
10:53PM 25.9650 117.5048 46° Northeast  Level Estimated
10:54PM 26.0430 117.5950 46° Northeast  Level Estimated
10:55PM 26.1208 117.6853 46° Northeast  Level Estimated
10:56PM 26.1986 117.7758 46° Northeast  Level Estimated
10:57PM 26.2764 117.8663 46° Northeast  Level Estimated
10:58PM 26.3541 117.9570 46° Northeast  Level Estimated
10:59PM 26.4317 118.0478 46° Northeast  Level Estimated
11:00PM 26.5093 118.1387 46° Northeast  Level Estimated
11:01PM 26.5868 118.2297 46° Northeast  Level Estimated
11:02PM 26.6642 118.3209 46° Northeast  Level Estimated
11:03PM 26.7416 118.4122 46° Northeast  Level Estimated
11:04PM 26.8190 118.5036 47° Northeast  Level Estimated
11:05PM 26.8962 118.5951 47° Northeast  Level Estimated
11:06PM 26.9735 118.6868 47° Northeast  Level Estimated
11:07PM 27.0506 118.7786 47° Northeast  Level Estimated
11:08PM 27.1277 118.8705 47° Northeast  Level Estimated
11:09PM 27.2048 118.9625 47° Northeast  Level Estimated
11:10PM 27.2818 119.0547 47° Northeast  Level Estimated
11:11PM 27.3587 119.1470 47° Northeast  Level Estimated
11:12PM 27.4356 119.2394 47° Northeast  Level Estimated
11:13PM 27.5124 119.3319 47° Northeast  Level Estimated
11:14PM 27.5891 119.4246 47° Northeast  Level Estimated
11:15PM 27.6658 119.5174 47° Northeast  Level Estimated
11:16PM 27.7424 119.6104 47° Northeast  Level Estimated
11:17PM 27.8189 119.7034 47° Northeast  Level Estimated
11:18PM 27.8954 119.7967 47° Northeast  Level Estimated
11:19PM 27.9718 119.8900 47° Northeast  Level Estimated
11:20PM 28.0482 119.9835 47° Northeast  Level Estimated
11:21PM 28.1245 120.0770 47° Northeast  Level Estimated
11:22PM 28.2008 120.1708 47° Northeast  Level Estimated
11:23PM 28.2769 120.2646 47° Northeast  Level Estimated
11:24PM 28.3530 120.3586 47° Northeast  Level Estimated
11:25PM 28.4291 120.4528 47° Northeast  Level Estimated
11:26PM 28.5051 120.5471 47° Northeast  Level Estimated
11:27PM 28.5810 120.6414 48° Northeast  Level Estimated
11:28PM 28.6568 120.7360 48° Northeast  Level Estimated
11:29PM 28.7326 120.8307 48° Northeast  Level Estimated
11:30PM 28.8083 120.9255 48° Northeast  Level Estimated
11:31PM 28.8840 121.0204 48° Northeast  Level Estimated
11:32PM 28.9596 121.1155 48° Northeast  Level Estimated
11:33PM 29.0351 121.2108 48° Northeast  Level Estimated
11:34PM 29.1105 121.3061 48° Northeast  Level Estimated
11:35PM 29.1859 121.4016 48° Northeast  Level Estimated
11:36PM 29.2612 121.4973 48° Northeast  Level Estimated
11:37PM 29.3365 121.5931 48° Northeast  Level Estimated
11:38PM 29.4117 121.6890 48° Northeast  Level Estimated
11:39PM 29.4868 121.7851 48° Northeast  Level Estimated
11:40PM 29.5618 121.8813 48° Northeast  Level Estimated
11:41PM 29.6368 121.9777 48° Northeast  Level Estimated
11:42PM 29.7117 122.0742 48° Northeast  Level Estimated
11:43PM 29.7865 122.1708 48° Northeast  Level Estimated
11:44PM 29.8613 122.2676 48° Northeast  Level Estimated
11:45PM 29.9342 122.3622 48° Northeast  Level Estimated
11:46PM 29.9342 122.3622 North  Level Estimated
11:47PM 29.9342 122.3622 North  Level Estimated
11:48PM 29.9342 122.3622 North  Level Estimated
11:49PM 29.9342 122.3622 North  Level Estimated
11:50PM 29.9342 122.3622 North  Level Estimated
11:51PM 29.9342 122.3622 North  Level Estimated
11:52PM 29.9342 122.3622 North  Level Estimated
11:53PM 29.9342 122.3622 North  Level Estimated
11:54PM 29.9342 122.3622 North  Level Estimated
11:55PM 29.9342 122.3622 North  Level Estimated
11:56PM 29.9342 122.3622 North  Level Estimated
11:57PM 29.9342 122.3622 North  Level Estimated
11:58PM 29.9342 122.3622 North  Level Estimated
11:59PM 29.9342 122.3622 North  Level Estimated
12:00AM 29.9342 122.3622 North  Level Estimated
12:01AM 29.9342 122.3622 North  Level Estimated
12:02AM 29.9342 122.3622 North  Level Estimated